createdAt,value
2024-02-02T00:01:53.692Z,100251.25
2024-02-02T00:04:21.697Z,100251.00
2024-02-02T00:06:49.893Z,100243.97
2024-02-02T00:09:18.132Z,100245.44
2024-02-02T00:11:47.898Z,100250.34
2024-02-02T00:14:16.296Z,100254.09
2024-02-02T00:16:44.512Z,100244.59
2024-02-02T00:19:12.671Z,100248.22
2024-02-02T00:21:40.797Z,100246.41
2024-02-02T00:24:09.301Z,100250.03
2024-02-02T00:26:37.319Z,100254.34
2024-02-02T00:29:06.660Z,100257.94
2024-02-02T00:31:34.616Z,100265.63
2024-02-02T00:34:02.880Z,100271.47
2024-02-02T00:36:31.016Z,100273.03
2024-02-02T00:38:59.077Z,100275.63
2024-02-02T00:41:27.132Z,100266.97
2024-02-02T00:43:55.155Z,100269.19
2024-02-02T00:46:24.565Z,100275.38
2024-02-02T00:48:52.884Z,100279.88
2024-02-02T00:51:21.002Z,100274.34
2024-02-02T00:53:49.028Z,100274.84
2024-02-02T00:56:17.201Z,100273.50
2024-02-02T00:58:45.200Z,100271.69
2024-02-02T01:01:13.254Z,100272.41
2024-02-02T01:03:42.714Z,100276.53
2024-02-02T01:06:10.838Z,100276.78
2024-02-02T01:08:39.021Z,100271.34
2024-02-02T01:11:07.265Z,100271.34
2024-02-02T01:13:35.398Z,100269.25
2024-02-02T01:16:03.631Z,100268.06
2024-02-02T01:18:32.187Z,100258.88
2024-02-02T01:21:01.794Z,100264.66
2024-02-02T01:23:29.838Z,100257.66
2024-02-02T01:25:57.806Z,100259.56
2024-02-02T01:28:25.773Z,100265.09
2024-02-02T01:30:53.817Z,100272.00
2024-02-02T01:33:22.392Z,100258.81
2024-02-02T01:35:50.965Z,100243.84
2024-02-02T01:38:20.315Z,100258.59
2024-02-02T01:40:48.337Z,100261.47
2024-02-02T01:43:16.343Z,100258.69
2024-02-02T01:45:44.521Z,100255.63
2024-02-02T01:48:12.716Z,100256.38
2024-02-02T01:50:40.850Z,100248.28
2024-02-02T01:53:08.825Z,100247.34
2024-02-02T01:55:38.581Z,100247.59
2024-02-02T01:58:06.846Z,100258.25
2024-02-02T02:00:34.922Z,100256.69
2024-02-02T02:03:03.068Z,100250.19
2024-02-02T02:05:31.325Z,100253.09
2024-02-02T02:07:59.343Z,100256.97
2024-02-02T02:10:27.445Z,100254.78
2024-02-02T02:12:57.058Z,100254.78
2024-02-02T02:15:26.401Z,100250.44
2024-02-02T02:17:54.726Z,100255.41
2024-02-02T02:20:23.513Z,100260.47
2024-02-02T02:22:52.966Z,100260.34
2024-02-02T02:25:21.001Z,100265.56
2024-02-02T02:27:48.966Z,100257.94
2024-02-02T02:30:16.994Z,100256.50
2024-02-02T02:32:45.077Z,100241.03
2024-02-02T02:35:13.394Z,100257.69
2024-02-02T02:37:41.420Z,100251.41
2024-02-02T02:40:12.263Z,100257.22
2024-02-02T02:42:40.426Z,100253.59
2024-02-02T02:45:08.785Z,100253.72
2024-02-02T02:47:38.140Z,100248.28
2024-02-02T02:50:07.355Z,100249.13
2024-02-02T02:52:35.356Z,100253.72
2024-02-02T02:55:03.446Z,100260.81
2024-02-02T02:57:32.941Z,100266.13
2024-02-02T03:00:01.077Z,100258.91
2024-02-02T03:02:29.098Z,100262.25
2024-02-02T03:04:57.086Z,100258.91
2024-02-02T03:07:25.329Z,100262.41
2024-02-02T03:09:53.339Z,100276.28
2024-02-02T03:12:21.504Z,100266.03
2024-02-02T03:14:51.010Z,100265.66
2024-02-02T03:17:19.000Z,100270.25
2024-02-02T03:19:47.106Z,100271.72
2024-02-02T03:22:15.152Z,100270.84
2024-02-02T03:24:43.179Z,100282.34
2024-02-02T03:27:11.222Z,100284.25
2024-02-02T03:29:39.232Z,100273.63
2024-02-02T03:32:08.709Z,100283.53
2024-02-02T03:34:36.905Z,100296.47
2024-02-02T03:37:05.171Z,100270.97
2024-02-02T03:39:34.235Z,100295.50
2024-02-02T03:42:02.342Z,100300.44
2024-02-02T03:44:30.562Z,100292.47
2024-02-02T03:46:58.536Z,100300.44
2024-02-02T03:49:27.896Z,100305.53
2024-02-02T03:51:55.995Z,100298.03
2024-02-02T03:54:24.085Z,100306.13
2024-02-02T03:56:52.137Z,100313.63
2024-02-02T03:59:20.163Z,100308.44
2024-02-02T04:01:48.132Z,100302.38
2024-02-02T04:04:16.420Z,100309.13
2024-02-02T04:06:45.877Z,100301.03
2024-02-02T04:09:13.925Z,100300.38
2024-02-02T04:11:42.256Z,100304.72
2024-02-02T04:14:10.258Z,100307.69
2024-02-02T04:16:38.200Z,100303.25
2024-02-02T04:19:06.314Z,100303.31
2024-02-02T04:21:34.374Z,100301.06
2024-02-02T04:24:03.770Z,100302.28
2024-02-02T04:26:31.944Z,100309.47
2024-02-02T04:28:59.902Z,100303.34
2024-02-02T04:31:27.895Z,100302.81
2024-02-02T04:33:56.056Z,100308.53
2024-02-02T04:36:24.204Z,100303.44
2024-02-02T04:38:52.238Z,100312.03
2024-02-02T04:41:21.671Z,100309.66
2024-02-02T04:43:49.789Z,100307.41
2024-02-02T04:46:18.561Z,100306.72
2024-02-02T04:48:46.887Z,100318.13
2024-02-02T04:51:14.046Z,100321.13
2024-02-02T04:53:42.203Z,100324.22
2024-02-02T04:56:10.171Z,100329.63
2024-02-02T04:58:39.578Z,100331.47
2024-02-02T05:01:07.611Z,100328.97
2024-02-02T05:03:35.677Z,100325.03
2024-02-02T05:06:03.774Z,100325.59
2024-02-02T05:08:31.879Z,100330.94
2024-02-02T05:10:59.871Z,100330.69
2024-02-02T05:13:27.886Z,100336.28
2024-02-02T05:15:59.631Z,100339.41
2024-02-02T05:18:27.708Z,100335.59
2024-02-02T05:20:55.913Z,100343.34
2024-02-02T05:23:24.933Z,100348.94
2024-02-02T05:25:52.933Z,100345.59
2024-02-02T05:28:20.947Z,100358.25
2024-02-02T05:30:48.974Z,100357.13
2024-02-02T05:33:18.625Z,100364.72
2024-02-02T05:35:46.718Z,100362.47
2024-02-02T05:38:14.702Z,100358.50
2024-02-02T05:40:42.728Z,100366.25
2024-02-02T05:43:12.050Z,100369.34
2024-02-02T05:45:40.101Z,100369.06
2024-02-02T05:48:09.358Z,100371.84
2024-02-02T05:50:38.795Z,100384.06
2024-02-02T05:53:06.904Z,100380.09
2024-02-02T05:55:34.850Z,100390.25
2024-02-02T05:58:02.827Z,100391.09
2024-02-02T06:00:30.900Z,100393.44
2024-02-02T06:02:58.887Z,100398.06
2024-02-02T06:05:26.878Z,100403.72
2024-02-02T06:07:56.218Z,100409.91
2024-02-02T06:10:24.259Z,100412.16
2024-02-02T06:12:52.268Z,100411.63
2024-02-02T06:15:20.292Z,100420.88
2024-02-02T06:20:16.360Z,100424.66
2024-02-02T06:22:44.960Z,100430.13
2024-02-02T06:25:14.492Z,100429.63
2024-02-02T06:27:42.588Z,100433.28
2024-02-02T06:30:11.368Z,100435.81
2024-02-02T06:32:40.976Z,100430.19
2024-02-02T06:35:09.562Z,100441.44
2024-02-02T06:37:37.546Z,100424.56
2024-02-02T06:40:06.418Z,100437.16
2024-02-02T06:42:35.960Z,100440.28
2024-02-02T06:45:04.259Z,100446.50
2024-02-02T06:47:32.710Z,100446.53
2024-02-02T06:50:00.849Z,100449.66
2024-02-02T06:52:29.292Z,100453.16
2024-02-02T06:54:57.250Z,100447.69
2024-02-02T06:57:26.409Z,100453.88
2024-02-02T06:59:56.841Z,100464.84
2024-02-02T07:02:25.765Z,100462.34
2024-02-02T07:04:55.007Z,100472.47
2024-02-02T07:07:23.063Z,100467.66
2024-02-02T07:09:52.810Z,100472.44
2024-02-02T07:12:44.179Z,100478.06
2024-02-02T07:15:16.366Z,100478.34
2024-02-02T07:17:46.036Z,100478.63
2024-02-02T07:20:36.371Z,100477.50
2024-02-02T07:23:05.082Z,100484.38
2024-02-02T07:25:37.116Z,100488.47
2024-02-02T07:28:06.143Z,100486.06
2024-02-02T07:30:55.629Z,100492.97
2024-02-02T07:33:25.672Z,100472.72
2024-02-02T07:35:54.010Z,100495.94
2024-02-02T07:38:53.679Z,100500.75
2024-02-02T07:41:24.584Z,100498.06
2024-02-02T07:43:52.723Z,100503.13
2024-02-02T07:46:24.124Z,100497.91
2024-02-02T07:48:53.249Z,100505.19
2024-02-02T07:51:23.509Z,100508.97
2024-02-02T07:53:51.769Z,100503.22
2024-02-02T07:56:21.790Z,100509.97
2024-02-02T07:58:49.778Z,100513.34
2024-02-02T08:01:17.981Z,100513.09
2024-02-02T08:03:48.178Z,100521.63
2024-02-02T08:06:16.305Z,100524.03
2024-02-02T08:08:44.393Z,100531.81
2024-02-02T08:11:12.420Z,100536.81
2024-02-02T08:13:40.385Z,100537.41
2024-02-02T08:16:09.824Z,100545.84
2024-02-02T08:18:39.773Z,100536.03
2024-02-02T08:21:11.867Z,100533.78
2024-02-02T08:23:39.962Z,100521.13
2024-02-02T08:26:08.409Z,100538.53
2024-02-02T08:28:45.302Z,100529.53
2024-02-02T08:31:19.521Z,100540.09
2024-02-02T08:33:47.658Z,100533.19
2024-02-02T08:36:19.260Z,100534.59
2024-02-02T08:38:47.399Z,100531.50
2024-02-02T08:41:15.343Z,100537.88
2024-02-02T08:43:43.664Z,100537.88
2024-02-02T08:46:11.152Z,100545.34
2024-02-02T08:48:43.362Z,100536.47
2024-02-02T08:51:53.940Z,100549.00
2024-02-02T08:54:38.173Z,100543.34
2024-02-02T08:57:30.600Z,100548.00
2024-02-02T09:00:05.780Z,100541.66
2024-02-02T09:03:00.309Z,100552.06
2024-02-02T09:05:30.450Z,100555.03
2024-02-02T09:08:10.639Z,100532.66
2024-02-02T09:11:23.153Z,100554.63
2024-02-02T09:14:08.344Z,100559.97
2024-02-02T09:16:44.745Z,100551.81
2024-02-02T09:19:18.388Z,100545.88
2024-02-02T09:21:46.388Z,100553.22
2024-02-02T09:24:21.641Z,100558.03
2024-02-02T09:26:49.588Z,100554.91
2024-02-02T09:29:19.765Z,100562.28
2024-02-02T09:31:48.092Z,100562.56
2024-02-02T09:34:19.309Z,100561.13
2024-02-02T09:36:47.419Z,100562.53
2024-02-02T09:39:52.191Z,100570.50
2024-02-02T09:43:06.361Z,100563.63
2024-02-02T09:45:50.911Z,100562.75
2024-02-02T09:48:27.216Z,100561.06
2024-02-02T09:51:00.675Z,100554.31
2024-02-02T09:53:52.006Z,100558.22
2024-02-02T09:56:25.111Z,100564.34
2024-02-02T09:58:55.965Z,100559.59
2024-02-02T10:01:31.064Z,100560.88
2024-02-02T10:04:05.860Z,100545.25
2024-02-02T10:06:41.283Z,100556.50
2024-02-02T10:09:18.401Z,100555.97
2024-02-02T10:12:05.872Z,100564.75
2024-02-02T10:15:18.337Z,100564.19
2024-02-02T10:17:55.186Z,100569.91
2024-02-02T10:20:27.185Z,100570.09
2024-02-02T10:23:18.311Z,100569.91
2024-02-02T10:25:57.869Z,100569.06
2024-02-02T10:28:34.429Z,100558.00
2024-02-02T10:31:12.636Z,100560.25
2024-02-02T10:33:46.808Z,100552.09
2024-02-02T10:36:20.223Z,100563.63
2024-02-02T10:39:04.033Z,100556.59
2024-02-02T10:41:36.353Z,100568.97
2024-02-02T10:44:14.890Z,100559.13
2024-02-02T10:46:47.308Z,100560.25
2024-02-02T10:49:32.504Z,100567.00
2024-02-02T10:52:05.810Z,100561.06
2024-02-02T10:57:49.301Z,100564.88
2024-02-02T11:00:21.449Z,100562.66
2024-02-02T11:03:03.554Z,100566.19
2024-02-02T11:05:36.933Z,100571.97
2024-02-02T11:08:07.424Z,100575.06
2024-02-02T11:10:39.191Z,100578.78
2024-02-02T11:13:11.604Z,100575.44
2024-02-02T11:15:47.105Z,100573.75
2024-02-02T11:18:24.605Z,100571.25
2024-02-02T11:20:58.504Z,100573.75
2024-02-02T11:23:30.106Z,100577.38
2024-02-02T11:26:01.426Z,100579.59
2024-02-02T11:28:33.065Z,100587.78
2024-02-02T11:31:05.161Z,100594.81
2024-02-02T11:33:53.694Z,100597.63
2024-02-02T11:36:30.974Z,100601.13
2024-02-02T11:39:06.424Z,100587.03
2024-02-02T11:41:34.990Z,100602.09
2024-02-02T11:44:04.434Z,100598.59
2024-02-02T11:46:34.169Z,100603.78
2024-02-02T11:49:07.407Z,100609.69
2024-02-02T11:51:36.834Z,100600.09
2024-02-02T11:54:07.418Z,100602.34
2024-02-02T11:56:37.083Z,100604.75
2024-02-02T11:59:11.022Z,100597.59
2024-02-02T12:01:43.946Z,100594.25
2024-02-02T12:04:18.769Z,100594.66
2024-02-02T12:06:51.053Z,100598.63
2024-02-02T12:09:23.120Z,100598.91
2024-02-02T12:11:54.471Z,100596.25
2024-02-02T12:14:25.972Z,100584.69
2024-02-02T12:16:53.980Z,100593.97
2024-02-02T12:19:22.178Z,100573.16
2024-02-02T12:21:50.235Z,100592.59
2024-02-02T12:24:18.401Z,100591.63
2024-02-02T12:26:49.423Z,100583.59
2024-02-02T12:29:17.680Z,100596.25
2024-02-02T12:31:47.106Z,100595.03
2024-02-02T12:34:15.371Z,100597.81
2024-02-02T12:36:43.481Z,100599.66
2024-02-02T12:39:11.547Z,100603.84
2024-02-02T12:41:39.539Z,100610.59
2024-02-02T12:44:09.050Z,100599.28
2024-02-02T12:46:44.817Z,100612.84
2024-02-02T12:49:14.816Z,100613.66
2024-02-02T12:51:43.273Z,100614.31
2024-02-02T12:54:11.737Z,100614.91
2024-02-02T12:56:40.214Z,100608.31
2024-02-02T12:59:11.889Z,100610.53
2024-02-02T13:01:39.872Z,100613.34
2024-02-02T13:04:08.080Z,100609.91
2024-02-02T13:06:37.700Z,100607.22
2024-02-02T13:09:20.649Z,100606.47
2024-02-02T13:11:48.956Z,100614.00
2024-02-02T13:14:28.583Z,100612.91
2024-02-02T13:17:10.828Z,100611.25
2024-02-02T13:19:40.277Z,100611.97
2024-02-02T13:22:22.751Z,100611.41
2024-02-02T13:24:51.633Z,100614.34
2024-02-02T13:27:20.322Z,100620.41
2024-02-02T13:29:52.960Z,100627.19
2024-02-02T13:32:21.644Z,100627.16
2024-02-02T13:34:49.811Z,100624.88
2024-02-02T13:37:30.736Z,100636.34
2024-02-02T13:40:00.265Z,100645.91
2024-02-02T13:42:29.720Z,100634.41
2024-02-02T13:45:07.519Z,100631.47
2024-02-02T13:47:37.045Z,100641.19
2024-02-02T13:50:07.693Z,100634.66
2024-02-02T13:52:37.176Z,100634.22
2024-02-02T13:55:07.593Z,100646.16
2024-02-02T13:57:35.619Z,100648.09
2024-02-02T14:00:03.794Z,100645.03
2024-02-02T14:02:31.865Z,100654.28
2024-02-02T14:04:59.979Z,100653.72
2024-02-02T14:07:28.145Z,100655.84
2024-02-02T14:10:04.469Z,100665.31
2024-02-02T14:12:32.823Z,100666.53
2024-02-02T14:15:05.284Z,100675.66
2024-02-02T14:17:34.446Z,100673.59
2024-02-02T14:20:03.624Z,100673.41
2024-02-02T14:22:31.627Z,100680.69
2024-02-02T14:24:59.590Z,100679.72
2024-02-02T14:27:35.672Z,100680.94
2024-02-02T14:30:05.658Z,100685.13
2024-02-02T14:32:33.763Z,100689.97
2024-02-02T14:35:01.910Z,100670.34
2024-02-02T14:37:29.960Z,100691.72
2024-02-02T14:40:00.653Z,100696.56
2024-02-02T14:42:29.892Z,100691.97
2024-02-02T14:45:00.571Z,100701.38
2024-02-02T14:47:28.897Z,100691.00
2024-02-02T14:49:57.077Z,100690.03
2024-02-02T14:52:25.125Z,100692.41
2024-02-02T14:54:53.111Z,100697.50
2024-02-02T14:57:21.816Z,100704.28
2024-02-02T14:59:53.278Z,100702.84
2024-02-02T15:02:23.127Z,100710.13
2024-02-02T15:04:51.195Z,100705.31
2024-02-02T15:07:19.192Z,100721.34
2024-02-02T15:09:47.411Z,100719.63
2024-02-02T15:12:15.546Z,100718.19
2024-02-02T15:14:43.551Z,100721.59
2024-02-02T15:17:11.555Z,100727.19
2024-02-02T15:19:41.035Z,100735.91
2024-02-02T15:22:09.063Z,100727.66
2024-02-02T15:24:37.069Z,100730.84
2024-02-02T15:27:05.488Z,100730.38
2024-02-02T15:29:33.858Z,100726.00
2024-02-02T15:32:01.941Z,100732.59
2024-02-02T15:34:30.118Z,100733.81
2024-02-02T15:36:59.618Z,100736.88
2024-02-02T15:39:34.929Z,100740.09
2024-02-02T15:42:06.794Z,100743.28
2024-02-02T15:44:34.792Z,100741.06
2024-02-02T15:47:04.863Z,100746.44
2024-02-02T15:49:33.151Z,100752.47
2024-02-02T15:52:03.681Z,100729.63
2024-02-02T15:54:31.800Z,100761.13
2024-02-02T15:57:00.246Z,100768.28
2024-02-02T15:59:28.265Z,100771.94
2024-02-02T16:01:57.809Z,100764.00
2024-02-02T16:04:25.861Z,100767.06
2024-02-02T16:07:04.810Z,100777.47
2024-02-02T16:09:37.325Z,100774.47
2024-02-02T16:12:06.332Z,100784.06
2024-02-02T16:14:34.359Z,100786.72
2024-02-02T16:17:02.571Z,100784.31
2024-02-02T16:19:30.744Z,100784.69
2024-02-02T16:21:58.854Z,100797.16
2024-02-02T16:24:27.010Z,100795.09
2024-02-02T16:26:56.404Z,100804.91
2024-02-02T16:29:24.445Z,100815.34
2024-02-02T16:31:52.505Z,100808.81
2024-02-02T16:34:20.772Z,100818.13
2024-02-02T16:36:49.532Z,100812.91
2024-02-02T16:39:18.123Z,100812.22
2024-02-02T16:41:47.360Z,100812.44
2024-02-02T16:44:17.739Z,100813.66
2024-02-02T16:46:46.137Z,100821.94
2024-02-02T16:49:14.407Z,100822.16
2024-02-02T16:51:43.270Z,100822.41
2024-02-02T16:54:11.766Z,100827.72
2024-02-02T16:56:40.046Z,100819.03
2024-02-02T16:59:08.918Z,100828.00
2024-02-02T17:01:38.619Z,100825.69
2024-02-02T17:04:06.858Z,100821.94
2024-02-02T17:06:35.364Z,100821.94
2024-02-02T17:09:03.920Z,100819.66
2024-02-02T17:11:32.100Z,100809.84
2024-02-02T17:14:00.270Z,100817.09
2024-02-02T17:16:28.600Z,100827.03
2024-02-02T17:18:58.272Z,100830.44
2024-02-02T17:21:26.495Z,100824.13
2024-02-02T17:23:54.650Z,100832.84
2024-02-02T17:26:23.214Z,100837.31
2024-02-02T17:28:57.513Z,100831.28
2024-02-02T17:31:28.550Z,100823.28
2024-02-02T17:33:58.237Z,100825.09
2024-02-02T17:36:26.473Z,100822.44
2024-02-02T17:38:54.881Z,100826.78
2024-02-02T17:41:23.323Z,100826.06
2024-02-02T17:43:51.570Z,100831.41
2024-02-02T17:46:20.801Z,100826.28
2024-02-02T17:48:49.201Z,100837.31
2024-02-02T17:51:21.282Z,100836.00
2024-02-02T17:53:49.450Z,100839.41
2024-02-02T17:56:18.575Z,100842.53
2024-02-02T17:58:47.632Z,100845.94
2024-02-02T18:01:17.193Z,100844.00
2024-02-02T18:03:45.520Z,100845.72
2024-02-02T18:06:14.444Z,100850.78
2024-02-02T18:08:44.021Z,100849.06
2024-02-02T18:11:12.952Z,100852.97
2024-02-02T18:13:41.192Z,100847.03
2024-02-02T18:16:11.356Z,100848.59
2024-02-02T18:18:40.670Z,100852.97
2024-02-02T18:21:08.801Z,100851.38
2024-02-02T18:23:36.835Z,100847.03
2024-02-02T18:26:06.829Z,100841.44
2024-02-02T18:28:34.836Z,100831.63
2024-02-02T18:31:02.886Z,100837.69
2024-02-02T18:33:31.018Z,100836.72
2024-02-02T18:35:59.021Z,100838.78
2024-02-02T18:38:27.056Z,100825.69
2024-02-02T18:40:55.090Z,100830.44
2024-02-02T18:43:24.468Z,100832.59
2024-02-02T18:45:52.454Z,100841.34
2024-02-02T18:48:24.777Z,100846.91
2024-02-02T18:50:52.950Z,100847.63
2024-02-02T18:53:20.984Z,100855.00
2024-02-02T18:55:50.404Z,100855.00
2024-02-02T18:58:20.329Z,100856.72
2024-02-02T19:00:50.150Z,100856.59
2024-02-02T19:03:18.380Z,100853.94
2024-02-02T19:05:48.052Z,100854.16
2024-02-02T19:08:16.082Z,100850.53
2024-02-02T19:10:45.736Z,100853.31
2024-02-02T19:13:13.926Z,100855.00
2024-02-02T19:15:41.919Z,100862.31
2024-02-02T19:18:11.826Z,100861.47
2024-02-02T19:20:41.108Z,100858.91
2024-02-02T19:23:09.107Z,100860.84
2024-02-02T19:25:37.052Z,100853.69
2024-02-02T19:28:07.484Z,100854.31
2024-02-02T19:30:35.556Z,100850.53
2024-02-02T19:33:03.817Z,100866.03
2024-02-02T19:35:33.278Z,100865.41
2024-02-02T19:38:01.248Z,100859.50
2024-02-02T19:40:29.270Z,100852.69
2024-02-02T19:42:57.397Z,100858.50
2024-02-02T19:45:25.420Z,100854.47
2024-02-02T19:47:53.537Z,100858.38
2024-02-02T19:50:21.538Z,100854.13
2024-02-02T19:52:50.847Z,100860.19
2024-02-02T19:55:18.863Z,100859.34
2024-02-02T19:57:46.932Z,100857.53
2024-02-02T20:00:16.038Z,100847.72
2024-02-02T20:02:47.027Z,100852.41
2024-02-02T20:05:15.267Z,100845.88
2024-02-02T20:07:43.617Z,100852.69
2024-02-02T20:10:13.242Z,100850.72
2024-02-02T20:12:41.352Z,100849.28
2024-02-02T20:15:09.867Z,100846.50
2024-02-02T20:17:38.108Z,100844.69
2024-02-02T20:20:08.626Z,100848.06
2024-02-02T20:22:36.919Z,100847.09
2024-02-02T20:25:05.516Z,100849.00
2024-02-02T20:27:34.934Z,100845.66
2024-02-02T20:30:03.009Z,100848.66
2024-02-02T20:32:31.097Z,100843.69
2024-02-02T20:34:59.365Z,100843.66
2024-02-02T20:37:27.405Z,100845.47
2024-02-02T20:39:55.442Z,100842.16
2024-02-02T20:42:23.478Z,100843.88
2024-02-02T20:44:52.869Z,100843.03
2024-02-02T20:47:20.937Z,100834.19
2024-02-02T20:49:49.048Z,100836.84
2024-02-02T20:52:17.615Z,100840.72
2024-02-02T20:54:45.800Z,100847.75
2024-02-02T20:57:13.892Z,100849.03
2024-02-02T20:59:42.395Z,100836.09
2024-02-02T21:02:11.790Z,100839.59
2024-02-02T21:04:39.884Z,100839.72
2024-02-02T21:07:11.404Z,100839.72
2024-02-02T21:09:39.571Z,100838.00
2024-02-02T21:12:08.773Z,100832.56
2024-02-02T21:14:36.827Z,100836.56
2024-02-02T21:17:04.938Z,100831.75
2024-02-02T21:19:34.384Z,100833.44
2024-02-02T21:22:07.008Z,100834.44
2024-02-02T21:24:35.377Z,100837.94
2024-02-02T21:27:04.754Z,100831.50
2024-02-02T21:29:32.767Z,100838.06
2024-02-02T21:32:00.777Z,100834.69
2024-02-02T21:34:30.142Z,100827.03
2024-02-02T21:36:59.577Z,100832.03
2024-02-02T21:39:27.593Z,100829.59
2024-02-02T21:41:55.938Z,100829.94
2024-02-02T21:44:24.820Z,100830.28
2024-02-02T21:46:53.016Z,100822.25
2024-02-02T21:49:21.197Z,100826.72
2024-02-02T21:51:49.371Z,100830.59
2024-02-02T21:54:18.864Z,100825.59
2024-02-02T21:56:47.030Z,100828.75
2024-02-02T21:59:15.104Z,100812.81
2024-02-02T22:01:43.165Z,100825.38
2024-02-02T22:04:13.073Z,100828.63
2024-02-02T22:06:41.348Z,100819.72
2024-02-02T22:09:09.682Z,100824.88
2024-02-02T22:11:39.201Z,100820.22
2024-02-02T22:14:07.224Z,100818.97
2024-02-02T22:16:35.178Z,100821.44
2024-02-02T22:19:03.689Z,100814.88
2024-02-02T22:21:31.987Z,100820.75
2024-02-02T22:24:00.079Z,100814.78
2024-02-02T22:26:28.374Z,100819.91
2024-02-02T22:28:58.198Z,100811.72
2024-02-02T22:31:26.191Z,100813.13
2024-02-02T22:33:54.300Z,100816.31
2024-02-02T22:36:25.550Z,100809.97
2024-02-02T22:38:53.900Z,100800.16
2024-02-02T22:41:32.139Z,100810.91
2024-02-02T22:44:03.561Z,100803.78
2024-02-02T22:46:31.973Z,100801.84
2024-02-02T22:49:00.184Z,100805.63
2024-02-02T22:51:28.354Z,100804.59
2024-02-02T22:53:56.360Z,100800.56
2024-02-02T22:56:24.387Z,100804.63
2024-02-02T22:58:52.422Z,100794.84
2024-02-02T23:01:22.392Z,100790.69
2024-02-02T23:03:50.542Z,100786.56
2024-02-02T23:06:18.720Z,100785.25
2024-02-02T23:08:47.132Z,100776.78
2024-02-02T23:11:15.944Z,100777.81
2024-02-02T23:13:43.914Z,100777.19
2024-02-02T23:16:12.376Z,100771.44
2024-02-02T23:18:42.038Z,100769.09
2024-02-02T23:21:10.258Z,100767.78
2024-02-02T23:23:39.223Z,100764.41
2024-02-02T23:26:07.253Z,100761.00
2024-02-02T23:28:35.289Z,100757.81
2024-02-02T23:31:03.947Z,100754.19
2024-02-02T23:33:32.214Z,100760.44
2024-02-02T23:36:01.708Z,100759.72
2024-02-02T23:38:29.710Z,100728.06
2024-02-02T23:40:57.876Z,100754.81
2024-02-02T23:43:26.190Z,100749.41
2024-02-02T23:45:54.426Z,100751.22
2024-02-02T23:48:22.526Z,100753.56
2024-02-02T23:50:50.569Z,100751.78
2024-02-02T23:53:20.768Z,100749.22
2024-02-02T23:55:48.785Z,100755.72
2024-02-02T23:58:16.849Z,100746.09
